Lake Delton, Wisconsin
Current Conditions -  °F | °C
As of 7:30 AM on Saturday 20 Dec 2014 (Local Time) from KDLL Reporting Station
Light Snow Light Snow  
Wind Chill: 26°   Ceiling: 7500
Heat Index: 26°   Visibility: 4mi
Dew Point: 23°   Wind: 0mph
Humidity: 89%   Direction: NA
Pressure: 30.23"   Gusts: NA
Location:  43.6°N, 89.79°W
Report Text: KDLL 201330Z AUTO 00000KT 4SM -SN SCT045 OVC075 M03/M05 A3023 RMK AO2 T10351050
Loading
Personal Weather Stations






























Interactive Weather Map New forecast layout! Learn more

10-Day Weather Forecast

Advertisements
Track Severe Weather on mobile